Bushville, New York
Current Conditions -  °F | °C
As of 12:54 AM on Saturday 29 Nov 2014 (Local Time) from KBUF Reporting Station
Overcast Overcast  
Wind Chill: 18°   Ceiling: 2700
Heat Index: 25°   Visibility: 9mi
Dew Point: 19°   Wind: 6mph
Humidity: 78%   Direction: 110°ESE
Pressure: 30.17"   Gusts: NA
Location:  42.9969°N, 78.2158°W
Report Text: KBUF 290554Z 11005KT 9SM BKN027 OVC040 M04/M07 A3017 RMK AO2 SNE50 SLP229 4/002 P0000 60000 T10391072 11039 21044 58006
Loading
Personal Weather Stations






























Interactive Weather Map New forecast layout! Learn more

10-Day Weather Forecast

Advertisements
Track Severe Weather on mobile